Terminal Aerodrome Forecast
Issued by NWS

Home | Current Version | Previous Version | Text Only | Print | Product List | Glossary On
Versions: 1 2 3 4 5 6 7 8 9 10 11 12 13 14
916
FTUS43 KLSX 030817 AAA
TAFSUS
TAF AMD
KSUS 030817Z 0308/0406 24014G24KT P6SM SKC
     FM030930 23014G22KT P6SM OVC035
     FM031100 27016G26KT P6SM OVC020
     FM031900 28015G25KT P6SM BKN035
     FM040100 30012KT P6SM SCT030=

USA.gov is the U.S. government's official web portal to all federal, state and local government web resources and services.